EZY50GT EIDW-LPPT
Flight info
| Callsign | EZY50GT |
|---|---|
| Flight time | 2h 30m |
| Altitude | 35000 |
| Route | BEPAN2J BEPAN DCT BANBA DCT PAVLO DCT TALIG DCT XIDAN/N0444F370 DCT KORUL DCT ASPOR DCT XAMAX |
| Aircraft | A320/M-SDE3FGHIRWY/LB1 |
Departure
| Time | 2026-05-06 16:46 |
|---|---|
| Airport | Dublin Airport (EIDW) |
Arrival
| Time | 2026-05-06 19:16 |
|---|---|
| Airport | Lisbon Humberto Delgado Airport (LPPT) |
| Time | Latitude | Longitude | Altitude | Speed | Heading |
|---|---|---|---|---|---|
| 2026-05-06 16:01 | 53.43027 | -6.25006 | 229 ft | 0 kts | 5° |
| 2026-05-06 16:32 | 53.43019 | -6.25008 | 228 ft | 3 kts | 6° |
| 2026-05-06 16:32 | 53.42997 | -6.25013 | 226 ft | 3 kts | 12° |
| 2026-05-06 16:33 | 53.42976 | -6.25023 | 222 ft | 3 kts | 27° |
| 2026-05-06 16:33 | 53.42959 | -6.25043 | 221 ft | 3 kts | 69° |
| 2026-05-06 16:33 | 53.42957 | -6.25057 | 224 ft | 0 kts | 94° |
| 2026-05-06 16:36 | 53.42956 | -6.25031 | 221 ft | 3 kts | 94° |
| 2026-05-06 16:36 | 53.42955 | -6.25002 | 220 ft | 5 kts | 94° |
| 2026-05-06 16:36 | 53.42921 | -6.24880 | 221 ft | 5 kts | 180° |
| 2026-05-06 16:36 | 53.42901 | -6.24907 | 222 ft | 3 kts | 217° |
| 2026-05-06 16:37 | 53.42885 | -6.24931 | 220 ft | 3 kts | 225° |
| 2026-05-06 16:37 | 53.42874 | -6.24952 | 220 ft | 2 kts | 229° |
| 2026-05-06 16:37 | 53.42866 | -6.24969 | 222 ft | 1 kts | 231° |
| 2026-05-06 16:37 | 53.42860 | -6.24980 | 221 ft | 1 kts | 231° |
| 2026-05-06 16:38 | 53.42857 | -6.24987 | 221 ft | 1 kts | 230° |
| 2026-05-06 16:38 | 53.42839 | -6.25017 | 220 ft | 6 kts | 223° |
| 2026-05-06 16:38 | 53.42787 | -6.25079 | 223 ft | 12 kts | 220° |
| 2026-05-06 16:38 | 53.42715 | -6.25200 | 220 ft | 17 kts | 226° |
| 2026-05-06 16:39 | 53.42647 | -6.25319 | 222 ft | 16 kts | 224° |
| 2026-05-06 16:39 | 53.42555 | -6.25474 | 215 ft | 18 kts | 226° |
| 2026-05-06 16:39 | 53.42455 | -6.25646 | 213 ft | 20 kts | 226° |
| 2026-05-06 16:39 | 53.42365 | -6.25799 | 215 ft | 19 kts | 226° |
| 2026-05-06 16:40 | 53.42276 | -6.25978 | 222 ft | 21 kts | 246° |
| 2026-05-06 16:40 | 53.42263 | -6.26217 | 225 ft | 22 kts | 274° |
| 2026-05-06 16:40 | 53.42276 | -6.26489 | 229 ft | 24 kts | 274° |
| 2026-05-06 16:40 | 53.42296 | -6.26785 | 231 ft | 28 kts | 279° |
| 2026-05-06 16:41 | 53.42310 | -6.27068 | 231 ft | 22 kts | 275° |
| 2026-05-06 16:41 | 53.42327 | -6.27351 | 230 ft | 27 kts | 275° |
| 2026-05-06 16:41 | 53.42343 | -6.27650 | 236 ft | 25 kts | 275° |
| 2026-05-06 16:41 | 53.42360 | -6.27950 | 242 ft | 25 kts | 275° |
| 2026-05-06 16:42 | 53.42370 | -6.28172 | 246 ft | 16 kts | 276° |
| 2026-05-06 16:42 | 53.42380 | -6.28336 | 249 ft | 12 kts | 276° |
| 2026-05-06 16:42 | 53.42389 | -6.28481 | 249 ft | 15 kts | 276° |
| 2026-05-06 16:42 | 53.42398 | -6.28698 | 249 ft | 22 kts | 273° |
| 2026-05-06 16:43 | 53.42413 | -6.28922 | 249 ft | 17 kts | 272° |
| 2026-05-06 16:43 | 53.42361 | -6.29063 | 248 ft | 8 kts | 201° |
| 2026-05-06 16:43 | 53.42357 | -6.29065 | 248 ft | 0 kts | 197° |
| 2026-05-06 16:44 | 53.42356 | -6.29065 | 248 ft | 1 kts | 194° |
| 2026-05-06 16:44 | 53.42343 | -6.29067 | 248 ft | 5 kts | 186° |
| 2026-05-06 16:44 | 53.42332 | -6.29068 | 249 ft | 0 kts | 184° |
| 2026-05-06 16:45 | 53.42267 | -6.29045 | 249 ft | 16 kts | 146° |
| 2026-05-06 16:45 | 53.42236 | -6.28856 | 248 ft | 19 kts | 98° |
| 2026-05-06 16:45 | 53.42217 | -6.28472 | 249 ft | 63 kts | 94° |
| 2026-05-06 16:45 | 53.42144 | -6.27267 | 232 ft | 140 kts | 95° |
| 2026-05-06 16:46 | 53.42007 | -6.25396 | 550 ft | 171 kts | 97° |
| 2026-05-06 16:46 | 53.41863 | -6.23316 | 1145 ft | 190 kts | 95° |
| 2026-05-06 16:46 | 53.41734 | -6.21014 | 1624 ft | 207 kts | 93° |
| 2026-05-06 16:46 | 53.41628 | -6.18530 | 2183 ft | 221 kts | 91° |
| 2026-05-06 16:47 | 53.41554 | -6.15887 | 2832 ft | 232 kts | 89° |
| 2026-05-06 16:47 | 53.41515 | -6.13138 | 3530 ft | 241 kts | 89° |
| 2026-05-06 16:47 | 53.41499 | -6.10284 | 4267 ft | 248 kts | 88° |
| 2026-05-06 16:47 | 53.41506 | -6.07346 | 5037 ft | 255 kts | 88° |
| 2026-05-06 16:48 | 53.41486 | -6.04340 | 5771 ft | 262 kts | 94° |
| 2026-05-06 16:48 | 53.41240 | -6.01334 | 6729 ft | 255 kts | 111° |
| 2026-05-06 16:48 | 53.40485 | -5.98814 | 7911 ft | 236 kts | 134° |
| 2026-05-06 16:48 | 53.39248 | -5.97081 | 8652 ft | 232 kts | 163° |
| 2026-05-06 16:49 | 53.37648 | -5.96380 | 8843 ft | 254 kts | 186° |
| 2026-05-06 16:49 | 53.35820 | -5.96846 | 8752 ft | 274 kts | 205° |
| 2026-05-06 16:49 | 53.34059 | -5.98172 | 8768 ft | 283 kts | 209° |
| 2026-05-06 16:49 | 53.32323 | -5.99742 | 8734 ft | 283 kts | 207° |
| 2026-05-06 16:50 | 53.30588 | -6.01222 | 8942 ft | 286 kts | 204° |
| 2026-05-06 16:50 | 53.28703 | -6.02321 | 9008 ft | 288 kts | 198° |
| 2026-05-06 16:50 | 53.26722 | -6.03208 | 9513 ft | 293 kts | 195° |
| 2026-05-06 16:50 | 53.25413 | -6.03758 | 10094 ft | 294 kts | 195° |
| 2026-05-06 16:51 | 53.22666 | -6.04949 | 10474 ft | 323 kts | 196° |
| 2026-05-06 16:51 | 53.20455 | -6.05970 | 10935 ft | 335 kts | 196° |
| 2026-05-06 16:51 | 53.18141 | -6.06627 | 11606 ft | 341 kts | 187° |
| 2026-05-06 16:51 | 53.15771 | -6.07015 | 12330 ft | 344 kts | 187° |
| 2026-05-06 16:52 | 53.13382 | -6.07421 | 13044 ft | 347 kts | 187° |
| 2026-05-06 16:52 | 53.10993 | -6.08056 | 13737 ft | 349 kts | 196° |
| 2026-05-06 16:52 | 53.08687 | -6.09337 | 14349 ft | 351 kts | 201° |
| 2026-05-06 16:52 | 53.06380 | -6.10718 | 14966 ft | 354 kts | 201° |
| 2026-05-06 16:53 | 53.04052 | -6.12101 | 15569 ft | 356 kts | 201° |
| 2026-05-06 16:53 | 53.01711 | -6.13484 | 16185 ft | 359 kts | 201° |
| 2026-05-06 16:53 | 52.99347 | -6.14879 | 16795 ft | 362 kts | 201° |
| 2026-05-06 16:53 | 52.96959 | -6.16288 | 17405 ft | 365 kts | 201° |
| 2026-05-06 16:54 | 52.94523 | -6.17515 | 17988 ft | 370 kts | 193° |
| 2026-05-06 16:54 | 52.91962 | -6.18132 | 18532 ft | 374 kts | 189° |
| 2026-05-06 16:54 | 52.90247 | -6.18488 | 18830 ft | 376 kts | 189° |
| 2026-05-06 16:54 | 52.87647 | -6.19028 | 18965 ft | 377 kts | 189° |
| 2026-05-06 16:55 | 52.85048 | -6.19571 | 18996 ft | 376 kts | 189° |
| 2026-05-06 16:55 | 52.82453 | -6.20120 | 18996 ft | 376 kts | 189° |
| 2026-05-06 16:55 | 52.79012 | -6.20854 | 18996 ft | 376 kts | 189° |
| 2026-05-06 16:55 | 52.76424 | -6.21403 | 18995 ft | 376 kts | 189° |
| 2026-05-06 16:56 | 52.74669 | -6.21774 | 18998 ft | 376 kts | 189° |
| 2026-05-06 16:56 | 52.72073 | -6.22320 | 18996 ft | 376 kts | 189° |
| 2026-05-06 16:56 | 52.69512 | -6.22856 | 18996 ft | 376 kts | 189° |
| 2026-05-06 16:56 | 52.66917 | -6.23400 | 18998 ft | 376 kts | 189° |
| 2026-05-06 16:57 | 52.64322 | -6.23944 | 18998 ft | 376 kts | 189° |
| 2026-05-06 16:57 | 52.61731 | -6.24485 | 19003 ft | 376 kts | 189° |
| 2026-05-06 16:57 | 52.59131 | -6.25030 | 19002 ft | 376 kts | 189° |
| 2026-05-06 16:57 | 52.56535 | -6.25576 | 19006 ft | 376 kts | 189° |
| 2026-05-06 16:58 | 52.53939 | -6.26116 | 19006 ft | 376 kts | 188° |
| 2026-05-06 16:58 | 52.51319 | -6.26317 | 19066 ft | 380 kts | 179° |
| 2026-05-06 16:58 | 52.48671 | -6.26164 | 19584 ft | 382 kts | 180° |
| 2026-05-06 16:58 | 52.46007 | -6.26041 | 20111 ft | 384 kts | 180° |
| 2026-05-06 16:59 | 52.43326 | -6.25933 | 20613 ft | 387 kts | 180° |
| 2026-05-06 16:59 | 52.40626 | -6.25836 | 21105 ft | 389 kts | 180° |
| 2026-05-06 16:59 | 52.37905 | -6.25739 | 21571 ft | 392 kts | 180° |
| 2026-05-06 16:59 | 52.35167 | -6.25636 | 22049 ft | 395 kts | 180° |
| 2026-05-06 17:00 | 52.32410 | -6.25523 | 22521 ft | 398 kts | 180° |
| 2026-05-06 17:00 | 52.29632 | -6.25399 | 22992 ft | 400 kts | 180° |
| 2026-05-06 17:00 | 52.26838 | -6.25268 | 23440 ft | 403 kts | 180° |
| 2026-05-06 17:00 | 52.24028 | -6.25137 | 23830 ft | 406 kts | 180° |
| 2026-05-06 17:01 | 52.21198 | -6.25009 | 24215 ft | 408 kts | 180° |
| 2026-05-06 17:01 | 52.18355 | -6.24886 | 24607 ft | 410 kts | 180° |
| 2026-05-06 17:01 | 52.15537 | -6.24767 | 24977 ft | 411 kts | 180° |
| 2026-05-06 17:01 | 52.12668 | -6.24647 | 25346 ft | 413 kts | 180° |
| 2026-05-06 17:02 | 52.09788 | -6.24526 | 25722 ft | 415 kts | 180° |
| 2026-05-06 17:02 | 52.06886 | -6.24402 | 26089 ft | 417 kts | 180° |
| 2026-05-06 17:02 | 52.03980 | -6.24282 | 26444 ft | 419 kts | 180° |
| 2026-05-06 17:02 | 52.01058 | -6.24160 | 26797 ft | 421 kts | 180° |
| 2026-05-06 17:03 | 51.98126 | -6.24035 | 27148 ft | 423 kts | 180° |
| 2026-05-06 17:03 | 51.95182 | -6.23761 | 27489 ft | 426 kts | 174° |
| 2026-05-06 17:03 | 51.92261 | -6.22878 | 27820 ft | 429 kts | 169° |
| 2026-05-06 17:03 | 51.89339 | -6.21851 | 28156 ft | 431 kts | 169° |
| 2026-05-06 17:04 | 51.86403 | -6.20831 | 28480 ft | 433 kts | 169° |
| 2026-05-06 17:04 | 51.83451 | -6.19813 | 28802 ft | 435 kts | 169° |
| 2026-05-06 17:04 | 51.80476 | -6.18794 | 29115 ft | 437 kts | 169° |
| 2026-05-06 17:04 | 51.77534 | -6.17787 | 29416 ft | 439 kts | 169° |
| 2026-05-06 17:05 | 51.74537 | -6.16765 | 29721 ft | 441 kts | 169° |
| 2026-05-06 17:05 | 51.71527 | -6.15740 | 30016 ft | 443 kts | 169° |
| 2026-05-06 17:05 | 51.68495 | -6.14707 | 30263 ft | 445 kts | 169° |
| 2026-05-06 17:05 | 51.65464 | -6.13673 | 30509 ft | 447 kts | 169° |
| 2026-05-06 17:06 | 51.62406 | -6.12636 | 30738 ft | 449 kts | 169° |
| 2026-05-06 17:06 | 51.59343 | -6.11598 | 30964 ft | 451 kts | 169° |
| 2026-05-06 17:06 | 51.56267 | -6.10556 | 31186 ft | 453 kts | 169° |
| 2026-05-06 17:06 | 51.53178 | -6.09510 | 31405 ft | 455 kts | 169° |
| 2026-05-06 17:07 | 51.50076 | -6.08463 | 31646 ft | 456 kts | 169° |
| 2026-05-06 17:07 | 51.46981 | -6.07421 | 31958 ft | 455 kts | 169° |
| 2026-05-06 17:07 | 51.43868 | -6.06370 | 32273 ft | 455 kts | 169° |
| 2026-05-06 17:07 | 51.40771 | -6.05324 | 32568 ft | 455 kts | 168° |
| 2026-05-06 17:08 | 51.37715 | -6.04294 | 32865 ft | 455 kts | 168° |
| 2026-05-06 17:08 | 51.34619 | -6.03251 | 33160 ft | 454 kts | 168° |
| 2026-05-06 17:08 | 51.31524 | -6.02212 | 33461 ft | 454 kts | 168° |
| 2026-05-06 17:08 | 51.28432 | -6.01180 | 33769 ft | 454 kts | 168° |
| 2026-05-06 17:09 | 51.25341 | -6.00151 | 34054 ft | 454 kts | 168° |
| 2026-05-06 17:09 | 51.22250 | -5.99125 | 34300 ft | 454 kts | 168° |
| 2026-05-06 17:09 | 51.19160 | -5.98094 | 34539 ft | 454 kts | 168° |
| 2026-05-06 17:09 | 51.16068 | -5.97058 | 34771 ft | 454 kts | 168° |
| 2026-05-06 17:10 | 51.12976 | -5.96024 | 34990 ft | 454 kts | 168° |
| 2026-05-06 17:10 | 51.09881 | -5.94994 | 35207 ft | 454 kts | 168° |
| 2026-05-06 17:10 | 51.06780 | -5.93963 | 35423 ft | 454 kts | 168° |
| 2026-05-06 17:10 | 51.03684 | -5.92938 | 35636 ft | 454 kts | 168° |
| 2026-05-06 17:11 | 51.00587 | -5.91915 | 35832 ft | 455 kts | 168° |
| 2026-05-06 17:11 | 50.97483 | -5.90888 | 36030 ft | 455 kts | 168° |
| 2026-05-06 17:11 | 50.94423 | -5.89898 | 36218 ft | 455 kts | 171° |
| 2026-05-06 17:11 | 50.91279 | -5.89394 | 36397 ft | 454 kts | 178° |
| 2026-05-06 17:12 | 50.88118 | -5.89184 | 36576 ft | 454 kts | 178° |
| 2026-05-06 17:12 | 50.84958 | -5.88972 | 36758 ft | 455 kts | 178° |
| 2026-05-06 17:12 | 50.81790 | -5.88758 | 36948 ft | 455 kts | 178° |
| 2026-05-06 17:13 | 50.75480 | -5.88336 | 37008 ft | 453 kts | 178° |
| 2026-05-06 17:13 | 50.69190 | -5.87909 | 37015 ft | 452 kts | 178° |
| 2026-05-06 17:14 | 50.62891 | -5.87479 | 37012 ft | 452 kts | 178° |
| 2026-05-06 17:14 | 50.56641 | -5.87058 | 37009 ft | 452 kts | 178° |
| 2026-05-06 17:15 | 50.50352 | -5.86635 | 37008 ft | 453 kts | 178° |
| 2026-05-06 17:15 | 50.44052 | -5.86210 | 37011 ft | 453 kts | 178° |
| 2026-05-06 17:16 | 50.37748 | -5.85781 | 37011 ft | 453 kts | 178° |
| 2026-05-06 17:16 | 50.31447 | -5.85361 | 37022 ft | 453 kts | 178° |
| 2026-05-06 17:17 | 50.25143 | -5.84943 | 37011 ft | 453 kts | 178° |
| 2026-05-06 17:17 | 50.18840 | -5.84519 | 37008 ft | 453 kts | 178° |
| 2026-05-06 17:18 | 50.12545 | -5.84098 | 37014 ft | 453 kts | 178° |
| 2026-05-06 17:18 | 50.06252 | -5.83673 | 37008 ft | 453 kts | 178° |
| 2026-05-06 17:19 | 49.99960 | -5.83259 | 37007 ft | 452 kts | 178° |
| 2026-05-06 17:19 | 49.93670 | -5.82861 | 37010 ft | 452 kts | 178° |
| 2026-05-06 17:20 | 49.87383 | -5.82461 | 37012 ft | 452 kts | 178° |
| 2026-05-06 17:20 | 49.81099 | -5.82039 | 37014 ft | 452 kts | 178° |
| 2026-05-06 17:21 | 49.74825 | -5.81619 | 37016 ft | 452 kts | 178° |
| 2026-05-06 17:21 | 49.68546 | -5.81208 | 37017 ft | 451 kts | 178° |
| 2026-05-06 17:22 | 49.62268 | -5.80797 | 37027 ft | 451 kts | 178° |
| 2026-05-06 17:22 | 49.56034 | -5.80400 | 37024 ft | 451 kts | 178° |
| 2026-05-06 17:23 | 49.49760 | -5.80452 | 37020 ft | 450 kts | 188° |
| 2026-05-06 17:23 | 49.43535 | -5.81560 | 37028 ft | 450 kts | 187° |
| 2026-05-06 17:24 | 49.37313 | -5.82653 | 37021 ft | 450 kts | 187° |
| 2026-05-06 17:24 | 49.31094 | -5.83750 | 37021 ft | 450 kts | 187° |
| 2026-05-06 17:25 | 49.24876 | -5.84841 | 37032 ft | 450 kts | 187° |
| 2026-05-06 17:25 | 49.18658 | -5.85922 | 37022 ft | 450 kts | 187° |
| 2026-05-06 17:26 | 49.12483 | -5.87003 | 37020 ft | 449 kts | 187° |
| 2026-05-06 17:26 | 49.06269 | -5.88092 | 37022 ft | 449 kts | 187° |
| 2026-05-06 17:27 | 49.00055 | -5.89173 | 37020 ft | 449 kts | 187° |
| 2026-05-06 17:27 | 48.93839 | -5.90249 | 37027 ft | 449 kts | 187° |
| 2026-05-06 17:28 | 48.87685 | -5.91312 | 37010 ft | 440 kts | 188° |
| 2026-05-06 17:28 | 48.81614 | -5.92348 | 37000 ft | 439 kts | 188° |
| 2026-05-06 17:29 | 48.75536 | -5.93391 | 37003 ft | 439 kts | 188° |
| 2026-05-06 17:29 | 48.69499 | -5.94441 | 37007 ft | 440 kts | 188° |
| 2026-05-06 17:30 | 48.63416 | -5.95488 | 37009 ft | 440 kts | 188° |
| 2026-05-06 17:30 | 48.57324 | -5.96525 | 37015 ft | 440 kts | 188° |
| 2026-05-06 17:31 | 48.51237 | -5.97568 | 37016 ft | 440 kts | 188° |
| 2026-05-06 17:31 | 48.45149 | -5.98604 | 37018 ft | 440 kts | 188° |
| 2026-05-06 17:32 | 48.39063 | -5.99632 | 37026 ft | 440 kts | 188° |
| 2026-05-06 17:32 | 48.32972 | -6.00663 | 37026 ft | 440 kts | 188° |
| 2026-05-06 17:33 | 48.26887 | -6.01683 | 37024 ft | 440 kts | 188° |
| 2026-05-06 17:33 | 48.20789 | -6.02701 | 37022 ft | 440 kts | 188° |
| 2026-05-06 17:34 | 48.14699 | -6.03730 | 37023 ft | 440 kts | 188° |
| 2026-05-06 17:34 | 48.08608 | -6.04758 | 37031 ft | 440 kts | 188° |
| 2026-05-06 17:35 | 48.02517 | -6.05772 | 37028 ft | 440 kts | 188° |
| 2026-05-06 17:35 | 47.96460 | -6.06776 | 37028 ft | 440 kts | 188° |
| 2026-05-06 17:36 | 47.87320 | -6.08289 | 37027 ft | 440 kts | 188° |
| 2026-05-06 17:36 | 47.81232 | -6.09301 | 37028 ft | 440 kts | 188° |
| 2026-05-06 17:37 | 47.75146 | -6.10315 | 37029 ft | 440 kts | 188° |
| 2026-05-06 17:37 | 47.69060 | -6.11314 | 37026 ft | 440 kts | 188° |
| 2026-05-06 17:38 | 47.62972 | -6.12326 | 37029 ft | 440 kts | 188° |
| 2026-05-06 17:38 | 47.56883 | -6.13341 | 37025 ft | 440 kts | 188° |
| 2026-05-06 17:39 | 47.50799 | -6.14333 | 37026 ft | 440 kts | 188° |
| 2026-05-06 17:39 | 47.44714 | -6.15321 | 37026 ft | 440 kts | 188° |
| 2026-05-06 17:40 | 47.38634 | -6.16312 | 37027 ft | 440 kts | 188° |
| 2026-05-06 17:40 | 47.32548 | -6.17308 | 37031 ft | 440 kts | 188° |
| 2026-05-06 17:41 | 47.26461 | -6.18302 | 37030 ft | 440 kts | 188° |
| 2026-05-06 17:41 | 47.20375 | -6.19279 | 37028 ft | 440 kts | 188° |
| 2026-05-06 17:42 | 47.14282 | -6.20259 | 37029 ft | 440 kts | 188° |
| 2026-05-06 17:42 | 47.08198 | -6.21246 | 37027 ft | 440 kts | 188° |
| 2026-05-06 17:43 | 47.02164 | -6.22617 | 37025 ft | 438 kts | 194° |
| 2026-05-06 17:43 | 46.97214 | -6.24256 | 37030 ft | 439 kts | 194° |
| 2026-05-06 17:44 | 46.91257 | -6.26222 | 37031 ft | 439 kts | 194° |
| 2026-05-06 17:44 | 46.85288 | -6.28188 | 37033 ft | 439 kts | 194° |
| 2026-05-06 17:45 | 46.79323 | -6.30141 | 37034 ft | 439 kts | 194° |
| 2026-05-06 17:45 | 46.73357 | -6.32084 | 37036 ft | 439 kts | 194° |
| 2026-05-06 17:46 | 46.67433 | -6.34009 | 37032 ft | 439 kts | 194° |
| 2026-05-06 17:46 | 46.61468 | -6.35957 | 37031 ft | 439 kts | 194° |
| 2026-05-06 17:47 | 46.55507 | -6.37894 | 37031 ft | 439 kts | 194° |
| 2026-05-06 17:47 | 46.49546 | -6.39826 | 37031 ft | 439 kts | 194° |
| 2026-05-06 17:48 | 46.43578 | -6.41759 | 37030 ft | 439 kts | 194° |
| 2026-05-06 17:48 | 46.37619 | -6.43688 | 37027 ft | 439 kts | 194° |
| 2026-05-06 17:49 | 46.31695 | -6.45590 | 37045 ft | 439 kts | 194° |
| 2026-05-06 17:49 | 46.25732 | -6.47502 | 37027 ft | 439 kts | 194° |
| 2026-05-06 17:50 | 46.19730 | -6.49433 | 37028 ft | 439 kts | 194° |
| 2026-05-06 17:50 | 46.13813 | -6.51333 | 37033 ft | 439 kts | 194° |
| 2026-05-06 17:51 | 46.07841 | -6.53237 | 37037 ft | 439 kts | 194° |
| 2026-05-06 17:51 | 46.01868 | -6.55132 | 37027 ft | 439 kts | 194° |
| 2026-05-06 17:52 | 45.95904 | -6.57027 | 37034 ft | 439 kts | 194° |
| 2026-05-06 17:52 | 45.89942 | -6.58923 | 37036 ft | 439 kts | 194° |
| 2026-05-06 17:53 | 45.83981 | -6.60812 | 37029 ft | 439 kts | 194° |
| 2026-05-06 17:53 | 45.78055 | -6.62679 | 37027 ft | 438 kts | 194° |
| 2026-05-06 17:54 | 45.72099 | -6.64540 | 37019 ft | 438 kts | 194° |
| 2026-05-06 17:54 | 45.66143 | -6.66418 | 37022 ft | 438 kts | 194° |
| 2026-05-06 17:55 | 45.60194 | -6.68293 | 37027 ft | 438 kts | 194° |
| 2026-05-06 17:55 | 45.54241 | -6.70153 | 37017 ft | 438 kts | 194° |
| 2026-05-06 17:56 | 45.48278 | -6.72013 | 37011 ft | 438 kts | 194° |
| 2026-05-06 17:56 | 45.42318 | -6.73871 | 37024 ft | 438 kts | 194° |
| 2026-05-06 17:57 | 45.36354 | -6.75720 | 37030 ft | 439 kts | 194° |
| 2026-05-06 17:57 | 45.30425 | -6.77567 | 37032 ft | 439 kts | 194° |
| 2026-05-06 17:58 | 45.24461 | -6.79415 | 37025 ft | 439 kts | 194° |
| 2026-05-06 17:58 | 45.18493 | -6.81262 | 37027 ft | 438 kts | 194° |
| 2026-05-06 17:59 | 45.12541 | -6.83096 | 37021 ft | 438 kts | 194° |
| 2026-05-06 17:59 | 45.06575 | -6.84925 | 37018 ft | 438 kts | 194° |
| 2026-05-06 18:00 | 45.00624 | -6.86753 | 37021 ft | 438 kts | 194° |
| 2026-05-06 18:00 | 44.94665 | -6.88580 | 37022 ft | 438 kts | 194° |
| 2026-05-06 18:01 | 44.88703 | -6.90395 | 37023 ft | 438 kts | 194° |
| 2026-05-06 18:01 | 44.82742 | -6.92230 | 37024 ft | 438 kts | 195° |
| 2026-05-06 18:02 | 44.76873 | -6.94453 | 37023 ft | 437 kts | 198° |
| 2026-05-06 18:02 | 44.71057 | -6.96947 | 37020 ft | 436 kts | 198° |
| 2026-05-06 18:03 | 44.65233 | -6.99382 | 37021 ft | 437 kts | 198° |
| 2026-05-06 18:03 | 44.59391 | -7.01730 | 37020 ft | 437 kts | 197° |
| 2026-05-06 18:04 | 44.53577 | -7.04036 | 37018 ft | 436 kts | 197° |
| 2026-05-06 18:04 | 44.47736 | -7.06367 | 37014 ft | 436 kts | 198° |
| 2026-05-06 18:05 | 44.41901 | -7.08704 | 37014 ft | 436 kts | 198° |
| 2026-05-06 18:05 | 44.36061 | -7.11030 | 37014 ft | 436 kts | 198° |
| 2026-05-06 18:06 | 44.30229 | -7.13357 | 37013 ft | 436 kts | 198° |
| 2026-05-06 18:06 | 44.24393 | -7.15677 | 37007 ft | 436 kts | 197° |
| 2026-05-06 18:07 | 44.18558 | -7.17984 | 37011 ft | 436 kts | 197° |
| 2026-05-06 18:07 | 44.12751 | -7.20279 | 37008 ft | 436 kts | 198° |
| 2026-05-06 18:08 | 44.06915 | -7.22586 | 37012 ft | 436 kts | 197° |
| 2026-05-06 18:08 | 44.01064 | -7.24890 | 37011 ft | 437 kts | 197° |
| 2026-05-06 18:09 | 43.95217 | -7.27184 | 37017 ft | 437 kts | 197° |
| 2026-05-06 18:09 | 43.89374 | -7.29472 | 37019 ft | 437 kts | 197° |
| 2026-05-06 18:10 | 43.83526 | -7.31768 | 37017 ft | 436 kts | 197° |
| 2026-05-06 18:10 | 43.77681 | -7.34059 | 37017 ft | 436 kts | 197° |
| 2026-05-06 18:11 | 43.71840 | -7.36333 | 37018 ft | 436 kts | 197° |
| 2026-05-06 18:11 | 43.66003 | -7.38603 | 37011 ft | 436 kts | 197° |
| 2026-05-06 18:12 | 43.60165 | -7.40869 | 37010 ft | 436 kts | 197° |
| 2026-05-06 18:12 | 43.54329 | -7.43125 | 37013 ft | 435 kts | 197° |
| 2026-05-06 18:13 | 43.48494 | -7.45386 | 37016 ft | 435 kts | 197° |
| 2026-05-06 18:13 | 43.42657 | -7.47648 | 37009 ft | 435 kts | 197° |
| 2026-05-06 18:14 | 43.36862 | -7.49880 | 37011 ft | 435 kts | 197° |
| 2026-05-06 18:14 | 43.31027 | -7.52118 | 37012 ft | 435 kts | 197° |
| 2026-05-06 18:15 | 43.25193 | -7.54353 | 37013 ft | 435 kts | 197° |
| 2026-05-06 18:15 | 43.19364 | -7.56586 | 37018 ft | 435 kts | 197° |
| 2026-05-06 18:16 | 43.13530 | -7.58823 | 37022 ft | 435 kts | 197° |
| 2026-05-06 18:16 | 43.07699 | -7.61048 | 37016 ft | 435 kts | 197° |
| 2026-05-06 18:17 | 43.01877 | -7.63262 | 37011 ft | 435 kts | 197° |
| 2026-05-06 18:17 | 42.96039 | -7.65476 | 37010 ft | 434 kts | 197° |
| 2026-05-06 18:18 | 42.90213 | -7.67677 | 37009 ft | 434 kts | 197° |
| 2026-05-06 18:18 | 42.84428 | -7.69866 | 37006 ft | 434 kts | 197° |
| 2026-05-06 18:19 | 42.78620 | -7.72062 | 37000 ft | 433 kts | 197° |
| 2026-05-06 18:19 | 42.72802 | -7.74259 | 37001 ft | 433 kts | 197° |
| 2026-05-06 18:20 | 42.66992 | -7.76436 | 36993 ft | 433 kts | 197° |
| 2026-05-06 18:20 | 42.61187 | -7.78609 | 36987 ft | 432 kts | 197° |
| 2026-05-06 18:21 | 42.55389 | -7.80790 | 36985 ft | 432 kts | 197° |
| 2026-05-06 18:21 | 42.49595 | -7.82963 | 36982 ft | 432 kts | 197° |
| 2026-05-06 18:22 | 42.43804 | -7.85129 | 36977 ft | 432 kts | 197° |
| 2026-05-06 18:22 | 42.38010 | -7.87281 | 36971 ft | 432 kts | 197° |
| 2026-05-06 18:23 | 42.32216 | -7.89433 | 36967 ft | 432 kts | 197° |
| 2026-05-06 18:23 | 42.26423 | -7.91583 | 36968 ft | 432 kts | 197° |
| 2026-05-06 18:24 | 42.20633 | -7.93725 | 36964 ft | 431 kts | 197° |
| 2026-05-06 18:24 | 42.14880 | -7.95850 | 36955 ft | 431 kts | 197° |
| 2026-05-06 18:25 | 42.09097 | -7.97987 | 36956 ft | 431 kts | 197° |
| 2026-05-06 18:25 | 42.03314 | -8.00121 | 36954 ft | 431 kts | 197° |
| 2026-05-06 18:26 | 41.97531 | -8.02248 | 36952 ft | 431 kts | 197° |
| 2026-05-06 18:26 | 41.91752 | -8.04364 | 36953 ft | 431 kts | 197° |
| 2026-05-06 18:27 | 41.85962 | -8.06480 | 36954 ft | 431 kts | 197° |
| 2026-05-06 18:27 | 41.80161 | -8.08557 | 36951 ft | 431 kts | 195° |
| 2026-05-06 18:28 | 41.74276 | -8.10199 | 36945 ft | 432 kts | 192° |
| 2026-05-06 18:28 | 41.68348 | -8.11623 | 36944 ft | 432 kts | 192° |
| 2026-05-06 18:29 | 41.62437 | -8.13084 | 36941 ft | 432 kts | 193° |
| 2026-05-06 18:29 | 41.56536 | -8.14616 | 36942 ft | 432 kts | 193° |
| 2026-05-06 18:30 | 41.50640 | -8.16168 | 36946 ft | 432 kts | 193° |
| 2026-05-06 18:30 | 41.45734 | -8.17445 | 36950 ft | 432 kts | 193° |
| 2026-05-06 18:31 | 41.39838 | -8.18972 | 36953 ft | 432 kts | 193° |
| 2026-05-06 18:31 | 41.32978 | -8.20736 | 36952 ft | 431 kts | 193° |
| 2026-05-06 18:32 | 41.28043 | -8.22003 | 36953 ft | 431 kts | 193° |
| 2026-05-06 18:32 | 41.22146 | -8.23531 | 36947 ft | 431 kts | 193° |
| 2026-05-06 18:33 | 41.16289 | -8.25044 | 36952 ft | 431 kts | 193° |
| 2026-05-06 18:33 | 41.10369 | -8.26563 | 36949 ft | 430 kts | 193° |
| 2026-05-06 18:34 | 41.04635 | -8.28029 | 36819 ft | 410 kts | 194° |
| 2026-05-06 18:34 | 41.01868 | -8.28733 | 36685 ft | 399 kts | 194° |
| 2026-05-06 18:34 | 40.99168 | -8.29418 | 36554 ft | 388 kts | 194° |
| 2026-05-06 18:35 | 40.96550 | -8.30083 | 36339 ft | 379 kts | 194° |
| 2026-05-06 18:35 | 40.93982 | -8.30736 | 36090 ft | 372 kts | 194° |
| 2026-05-06 18:35 | 40.91469 | -8.31376 | 35837 ft | 365 kts | 194° |
| 2026-05-06 18:35 | 40.88996 | -8.32006 | 35587 ft | 358 kts | 194° |
| 2026-05-06 18:36 | 40.86564 | -8.32626 | 35340 ft | 354 kts | 194° |
| 2026-05-06 18:36 | 40.84152 | -8.33243 | 35091 ft | 352 kts | 194° |
| 2026-05-06 18:36 | 40.81759 | -8.33858 | 34855 ft | 351 kts | 194° |
| 2026-05-06 18:36 | 40.79361 | -8.34469 | 34614 ft | 349 kts | 194° |
| 2026-05-06 18:37 | 40.76980 | -8.35075 | 34377 ft | 348 kts | 195° |
| 2026-05-06 18:37 | 40.74601 | -8.35681 | 34140 ft | 347 kts | 195° |
| 2026-05-06 18:37 | 40.72239 | -8.36281 | 33895 ft | 346 kts | 195° |
| 2026-05-06 18:37 | 40.69871 | -8.36882 | 33623 ft | 345 kts | 194° |
| 2026-05-06 18:38 | 40.67509 | -8.37478 | 33336 ft | 346 kts | 194° |
| 2026-05-06 18:38 | 40.65171 | -8.38069 | 33073 ft | 346 kts | 194° |
| 2026-05-06 18:38 | 40.62803 | -8.38669 | 32801 ft | 347 kts | 194° |
| 2026-05-06 18:38 | 40.60433 | -8.39271 | 32538 ft | 347 kts | 194° |
| 2026-05-06 18:39 | 40.58060 | -8.39875 | 32270 ft | 348 kts | 194° |
| 2026-05-06 18:39 | 40.55651 | -8.40486 | 32004 ft | 348 kts | 194° |
| 2026-05-06 18:39 | 40.53300 | -8.41076 | 31753 ft | 349 kts | 193° |
| 2026-05-06 18:40 | 40.48527 | -8.42267 | 31235 ft | 350 kts | 193° |
| 2026-05-06 18:40 | 40.46129 | -8.42866 | 30988 ft | 350 kts | 193° |
| 2026-05-06 18:40 | 40.43738 | -8.43463 | 30739 ft | 348 kts | 193° |
| 2026-05-06 18:40 | 40.41392 | -8.44048 | 30580 ft | 338 kts | 193° |
| 2026-05-06 18:41 | 40.39154 | -8.44790 | 30393 ft | 327 kts | 203° |
| 2026-05-06 18:41 | 40.37062 | -8.45907 | 30055 ft | 323 kts | 204° |
| 2026-05-06 18:41 | 40.34988 | -8.47018 | 29629 ft | 321 kts | 203° |
| 2026-05-06 18:41 | 40.32898 | -8.48139 | 28830 ft | 329 kts | 203° |
| 2026-05-06 18:42 | 40.30753 | -8.49290 | 28003 ft | 338 kts | 203° |
| 2026-05-06 18:42 | 40.28557 | -8.50468 | 27293 ft | 343 kts | 203° |
| 2026-05-06 18:42 | 40.26345 | -8.51654 | 26755 ft | 344 kts | 203° |
| 2026-05-06 18:42 | 40.24134 | -8.52842 | 26244 ft | 344 kts | 203° |
| 2026-05-06 18:43 | 40.21923 | -8.54028 | 25740 ft | 344 kts | 203° |
| 2026-05-06 18:43 | 40.19710 | -8.55215 | 25243 ft | 343 kts | 203° |
| 2026-05-06 18:43 | 40.17501 | -8.56397 | 24754 ft | 343 kts | 203° |
| 2026-05-06 18:43 | 40.15293 | -8.57574 | 24275 ft | 343 kts | 203° |
| 2026-05-06 18:44 | 40.13088 | -8.58747 | 23807 ft | 342 kts | 203° |
| 2026-05-06 18:44 | 40.10883 | -8.59921 | 23298 ft | 342 kts | 203° |
| 2026-05-06 18:44 | 40.08704 | -8.61081 | 23028 ft | 334 kts | 203° |
| 2026-05-06 18:44 | 40.06568 | -8.62215 | 22753 ft | 327 kts | 203° |
| 2026-05-06 18:45 | 40.04484 | -8.63316 | 22482 ft | 320 kts | 203° |
| 2026-05-06 18:45 | 40.02435 | -8.64385 | 22211 ft | 314 kts | 202° |
| 2026-05-06 18:45 | 40.00425 | -8.65425 | 21948 ft | 308 kts | 202° |
| 2026-05-06 18:45 | 39.98447 | -8.66447 | 21680 ft | 302 kts | 202° |
| 2026-05-06 18:46 | 39.96530 | -8.67437 | 21417 ft | 297 kts | 202° |
| 2026-05-06 18:46 | 39.94617 | -8.68425 | 21159 ft | 293 kts | 203° |
| 2026-05-06 18:46 | 39.92744 | -8.69395 | 20896 ft | 288 kts | 203° |
| 2026-05-06 18:46 | 39.90887 | -8.70357 | 20640 ft | 285 kts | 203° |
| 2026-05-06 18:47 | 39.89048 | -8.71308 | 20393 ft | 283 kts | 203° |
| 2026-05-06 18:47 | 39.87220 | -8.72253 | 20147 ft | 282 kts | 203° |
| 2026-05-06 18:47 | 39.85400 | -8.73194 | 19893 ft | 281 kts | 203° |
| 2026-05-06 18:47 | 39.83587 | -8.74132 | 19639 ft | 280 kts | 203° |
| 2026-05-06 18:48 | 39.81782 | -8.75066 | 19403 ft | 279 kts | 203° |
| 2026-05-06 18:48 | 39.79983 | -8.75995 | 19158 ft | 278 kts | 203° |
| 2026-05-06 18:48 | 39.78191 | -8.76919 | 18914 ft | 276 kts | 203° |
| 2026-05-06 18:48 | 39.76405 | -8.77838 | 18675 ft | 275 kts | 203° |
| 2026-05-06 18:49 | 39.74623 | -8.78751 | 18433 ft | 275 kts | 203° |
| 2026-05-06 18:49 | 39.72845 | -8.79664 | 18187 ft | 274 kts | 203° |
| 2026-05-06 18:49 | 39.71078 | -8.80575 | 17915 ft | 272 kts | 203° |
| 2026-05-06 18:49 | 39.69320 | -8.81481 | 17643 ft | 271 kts | 203° |
| 2026-05-06 18:50 | 39.67568 | -8.82383 | 17372 ft | 271 kts | 203° |
| 2026-05-06 18:50 | 39.65820 | -8.83279 | 17105 ft | 270 kts | 203° |
| 2026-05-06 18:50 | 39.64081 | -8.84167 | 16842 ft | 269 kts | 203° |
| 2026-05-06 18:50 | 39.62345 | -8.85054 | 16584 ft | 268 kts | 203° |
| 2026-05-06 18:51 | 39.60634 | -8.85931 | 16327 ft | 267 kts | 203° |
| 2026-05-06 18:51 | 39.58912 | -8.86814 | 16065 ft | 266 kts | 203° |
| 2026-05-06 18:51 | 39.57188 | -8.87697 | 15814 ft | 266 kts | 203° |
| 2026-05-06 18:51 | 39.55470 | -8.88580 | 15559 ft | 265 kts | 203° |
| 2026-05-06 18:52 | 39.53754 | -8.89463 | 15304 ft | 265 kts | 203° |
| 2026-05-06 18:52 | 39.52039 | -8.90344 | 15049 ft | 264 kts | 203° |
| 2026-05-06 18:52 | 39.50327 | -8.91217 | 14815 ft | 264 kts | 203° |
| 2026-05-06 18:52 | 39.48619 | -8.92087 | 14569 ft | 264 kts | 203° |
| 2026-05-06 18:53 | 39.46916 | -8.92955 | 14323 ft | 263 kts | 203° |
| 2026-05-06 18:53 | 39.45208 | -8.93824 | 14081 ft | 263 kts | 203° |
| 2026-05-06 18:53 | 39.43508 | -8.94690 | 13845 ft | 262 kts | 203° |
| 2026-05-06 18:53 | 39.41814 | -8.95554 | 13582 ft | 262 kts | 203° |
| 2026-05-06 18:54 | 39.40121 | -8.96416 | 13315 ft | 261 kts | 203° |
| 2026-05-06 18:54 | 39.38432 | -8.97275 | 13050 ft | 260 kts | 203° |
| 2026-05-06 18:54 | 39.36750 | -8.98132 | 12786 ft | 259 kts | 202° |
| 2026-05-06 18:54 | 39.35073 | -8.98984 | 12524 ft | 259 kts | 202° |
| 2026-05-06 18:55 | 39.33401 | -8.99836 | 12263 ft | 258 kts | 203° |
| 2026-05-06 18:55 | 39.31736 | -9.00684 | 12005 ft | 257 kts | 202° |
| 2026-05-06 18:55 | 39.30072 | -9.01529 | 11748 ft | 256 kts | 202° |
| 2026-05-06 18:55 | 39.28414 | -9.02370 | 11492 ft | 256 kts | 202° |
| 2026-05-06 18:56 | 39.26760 | -9.03210 | 11258 ft | 255 kts | 202° |
| 2026-05-06 18:56 | 39.25116 | -9.04041 | 11031 ft | 254 kts | 202° |
| 2026-05-06 18:56 | 39.23466 | -9.04875 | 10949 ft | 254 kts | 202° |
| 2026-05-06 18:56 | 39.21822 | -9.05708 | 10957 ft | 255 kts | 202° |
| 2026-05-06 18:57 | 39.20190 | -9.06536 | 10957 ft | 255 kts | 202° |
| 2026-05-06 18:57 | 39.18539 | -9.07373 | 10955 ft | 255 kts | 202° |
| 2026-05-06 18:57 | 39.16890 | -9.08207 | 10959 ft | 255 kts | 202° |
| 2026-05-06 18:57 | 39.15232 | -9.09043 | 10959 ft | 255 kts | 202° |
| 2026-05-06 18:58 | 39.13576 | -9.09877 | 10964 ft | 255 kts | 202° |
| 2026-05-06 18:58 | 39.11922 | -9.10711 | 10958 ft | 255 kts | 202° |
| 2026-05-06 18:58 | 39.10844 | -9.11254 | 10959 ft | 255 kts | 202° |
| 2026-05-06 18:58 | 39.08947 | -9.12212 | 10957 ft | 255 kts | 202° |
| 2026-05-06 18:59 | 39.07295 | -9.13047 | 10955 ft | 255 kts | 202° |
| 2026-05-06 18:59 | 39.05641 | -9.13882 | 10958 ft | 255 kts | 202° |
| 2026-05-06 18:59 | 39.03985 | -9.14719 | 10953 ft | 255 kts | 203° |
| 2026-05-06 18:59 | 39.02334 | -9.15552 | 10957 ft | 255 kts | 203° |
| 2026-05-06 19:00 | 39.00679 | -9.16385 | 10957 ft | 255 kts | 203° |
| 2026-05-06 19:00 | 38.99014 | -9.17223 | 10756 ft | 257 kts | 202° |
| 2026-05-06 19:00 | 38.97357 | -9.18056 | 10511 ft | 255 kts | 202° |
| 2026-05-06 19:00 | 38.96262 | -9.18605 | 10346 ft | 254 kts | 202° |
| 2026-05-06 19:01 | 38.94062 | -9.19708 | 10016 ft | 254 kts | 202° |
| 2026-05-06 19:01 | 38.92441 | -9.20522 | 9835 ft | 253 kts | 202° |
| 2026-05-06 19:01 | 38.90802 | -9.21344 | 9702 ft | 253 kts | 202° |
| 2026-05-06 19:01 | 38.89163 | -9.22168 | 9569 ft | 253 kts | 202° |
| 2026-05-06 19:02 | 38.87526 | -9.22989 | 9438 ft | 252 kts | 202° |
| 2026-05-06 19:02 | 38.85891 | -9.23808 | 9303 ft | 252 kts | 202° |
| 2026-05-06 19:02 | 38.84263 | -9.24625 | 9172 ft | 251 kts | 202° |
| 2026-05-06 19:02 | 38.82636 | -9.25439 | 9035 ft | 251 kts | 202° |
| 2026-05-06 19:03 | 38.81012 | -9.26251 | 8900 ft | 250 kts | 202° |
| 2026-05-06 19:03 | 38.79392 | -9.27060 | 8772 ft | 250 kts | 202° |
| 2026-05-06 19:03 | 38.77773 | -9.27870 | 8559 ft | 248 kts | 202° |
| 2026-05-06 19:03 | 38.76171 | -9.28670 | 8237 ft | 247 kts | 202° |
| 2026-05-06 19:04 | 38.74573 | -9.29467 | 7897 ft | 246 kts | 202° |
| 2026-05-06 19:04 | 38.72980 | -9.30260 | 7561 ft | 245 kts | 202° |
| 2026-05-06 19:04 | 38.71393 | -9.31053 | 7236 ft | 244 kts | 202° |
| 2026-05-06 19:04 | 38.69817 | -9.31842 | 6915 ft | 243 kts | 202° |
| 2026-05-06 19:05 | 38.68248 | -9.32625 | 6597 ft | 241 kts | 202° |
| 2026-05-06 19:05 | 38.66745 | -9.33374 | 6289 ft | 240 kts | 202° |
| 2026-05-06 19:05 | 38.65184 | -9.34149 | 5952 ft | 240 kts | 202° |
| 2026-05-06 19:05 | 38.63627 | -9.34922 | 5580 ft | 240 kts | 202° |
| 2026-05-06 19:06 | 38.62069 | -9.35699 | 5212 ft | 241 kts | 202° |
| 2026-05-06 19:06 | 38.60505 | -9.36476 | 4852 ft | 242 kts | 203° |
| 2026-05-06 19:06 | 38.58936 | -9.37220 | 4371 ft | 248 kts | 197° |
| 2026-05-06 19:06 | 38.57200 | -9.37185 | 4005 ft | 251 kts | 162° |
| 2026-05-06 19:07 | 38.55749 | -9.36139 | 3941 ft | 236 kts | 142° |
| 2026-05-06 19:07 | 38.54895 | -9.35280 | 3947 ft | 230 kts | 140° |
| 2026-05-06 19:07 | 38.53255 | -9.33545 | 3954 ft | 229 kts | 139° |
| 2026-05-06 19:07 | 38.52045 | -9.32262 | 3954 ft | 229 kts | 139° |
| 2026-05-06 19:08 | 38.50815 | -9.30968 | 3954 ft | 229 kts | 139° |
| 2026-05-06 19:08 | 38.49703 | -9.29546 | 3955 ft | 224 kts | 114° |
| 2026-05-06 19:08 | 38.49467 | -9.27677 | 3954 ft | 213 kts | 70° |
| 2026-05-06 19:08 | 38.50264 | -9.26218 | 3958 ft | 199 kts | 24° |
| 2026-05-06 19:09 | 38.51565 | -9.25957 | 3961 ft | 192 kts | 347° |
| 2026-05-06 19:09 | 38.52890 | -9.26245 | 3954 ft | 194 kts | 354° |
| 2026-05-06 19:09 | 38.54242 | -9.26100 | 3951 ft | 198 kts | 10° |
| 2026-05-06 19:09 | 38.55552 | -9.25579 | 3950 ft | 193 kts | 17° |
| 2026-05-06 19:10 | 38.56767 | -9.24968 | 3945 ft | 183 kts | 18° |
| 2026-05-06 19:10 | 38.57938 | -9.24354 | 3948 ft | 181 kts | 18° |
| 2026-05-06 19:10 | 38.59052 | -9.23763 | 3953 ft | 166 kts | 19° |
| 2026-05-06 19:10 | 38.60088 | -9.23213 | 3833 ft | 158 kts | 18° |
| 2026-05-06 19:11 | 38.61093 | -9.22679 | 3632 ft | 155 kts | 17° |
| 2026-05-06 19:11 | 38.62077 | -9.22156 | 3453 ft | 152 kts | 17° |
| 2026-05-06 19:11 | 38.63052 | -9.21638 | 3251 ft | 151 kts | 18° |
| 2026-05-06 19:11 | 38.64021 | -9.21123 | 3053 ft | 151 kts | 18° |
| 2026-05-06 19:12 | 38.64982 | -9.20611 | 2860 ft | 147 kts | 17° |
| 2026-05-06 19:12 | 38.65901 | -9.20120 | 2661 ft | 139 kts | 17° |
| 2026-05-06 19:12 | 38.66772 | -9.19656 | 2472 ft | 132 kts | 18° |
| 2026-05-06 19:12 | 38.67326 | -9.19361 | 2382 ft | 129 kts | 18° |
| 2026-05-06 19:13 | 38.68422 | -9.18777 | 2126 ft | 127 kts | 17° |
| 2026-05-06 19:13 | 38.69229 | -9.18347 | 1958 ft | 125 kts | 16° |
| 2026-05-06 19:13 | 38.70037 | -9.17917 | 1790 ft | 126 kts | 17° |
| 2026-05-06 19:13 | 38.70842 | -9.17488 | 1619 ft | 126 kts | 17° |
| 2026-05-06 19:14 | 38.71649 | -9.17057 | 1448 ft | 125 kts | 18° |
| 2026-05-06 19:14 | 38.72455 | -9.16627 | 1286 ft | 125 kts | 16° |
| 2026-05-06 19:14 | 38.73263 | -9.16197 | 1089 ft | 126 kts | 19° |
| 2026-05-06 19:14 | 38.74071 | -9.15765 | 924 ft | 126 kts | 15° |
| 2026-05-06 19:15 | 38.74883 | -9.15331 | 752 ft | 126 kts | 15° |
| 2026-05-06 19:15 | 38.75698 | -9.14883 | 571 ft | 131 kts | 16° |
| 2026-05-06 19:15 | 38.76536 | -9.14420 | 399 ft | 130 kts | 8° |
| 2026-05-06 19:15 | 38.77332 | -9.14153 | 363 ft | 115 kts | 2° |
| 2026-05-06 19:16 | 38.77842 | -9.13989 | 398 ft | 110 kts | 352° |
| 2026-05-06 19:16 | 38.78027 | -9.13914 | 380 ft | 1 kts | 250° |